LEVC/VLC METAR and TAF weather

Enter ICAO airport designator
Station Type Date Time Source
LEVC METAR 2019/08/22 16:00 UTC NOAA

LEVC 221600Z 13010KT 100V170 9999 FEW030 29/14 Q1019 NOSIG


Station Type Date Time Source
LEVC Decoded METAR 2019/08/22 16:00 UTC NOAA

Station name not available
Aug 22, 2019 - 12:00 PM EDT / 2019.08.22 1600 UTC
Wind: from the SE (130 degrees) at 12 MPH (10 KT) (direction variable):0
Visibility: greater than 7 mile(s):0
Sky conditions: mostly clear
Temperature: 84 F (29 C)
Dew Point: 57 F (14 C)
Relative Humidity: 39%
Pressure (altimeter): 30.09 in. Hg (1019 hPa)
ob: LEVC 221600Z 13010KT 100V170 9999 FEW030 29/14 Q1019 NOSIG
cycle: 16

Station Type Date Time Source
LEVC TAF 2019/08/22 12:27 UTC NOAA

TAF LEVC 221100Z 2212/2312 11010KT 9999 FEW025 TX30/2212Z TN18/2305Z
BECMG 2218/2220 VRB04KT
BECMG 2310/2312 12010KT

Example: see airport list